sensor_id;sensor_type;location;lat;lon;timestamp;P1;durP1;ratioP1;P2;durP2;ratioP2
8279;SDS011;8335;42.646;23.380;2023-04-15T00:02:00;7.17;;;2.97;;
8279;SDS011;8335;42.646;23.380;2023-04-15T00:04:26;8.13;;;3.90;;
8279;SDS011;8335;42.646;23.380;2023-04-15T00:06:55;7.03;;;4.27;;
8279;SDS011;8335;42.646;23.380;2023-04-15T00:09:22;9.30;;;4.03;;
8279;SDS011;8335;42.646;23.380;2023-04-15T00:11:49;4.27;;;3.13;;
8279;SDS011;8335;42.646;23.380;2023-04-15T00:14:16;4.47;;;3.07;;
8279;SDS011;8335;42.646;23.380;2023-04-15T00:16:44;4.53;;;2.70;;
8279;SDS011;8335;42.646;23.380;2023-04-15T00:19:11;4.67;;;2.80;;
8279;SDS011;8335;42.646;23.380;2023-04-15T00:21:38;5.70;;;3.00;;
8279;SDS011;8335;42.646;23.380;2023-04-15T00:24:04;5.93;;;3.80;;
8279;SDS011;8335;42.646;23.380;2023-04-15T00:26:31;5.93;;;3.60;;
8279;SDS011;8335;42.646;23.380;2023-04-15T00:28:58;4.40;;;2.93;;
8279;SDS011;8335;42.646;23.380;2023-04-15T00:31:25;7.80;;;3.57;;
8279;SDS011;8335;42.646;23.380;2023-04-15T00:33:53;6.13;;;3.83;;
8279;SDS011;8335;42.646;23.380;2023-04-15T00:36:20;6.87;;;4.23;;
8279;SDS011;8335;42.646;23.380;2023-04-15T00:38:48;6.93;;;3.70;;
8279;SDS011;8335;42.646;23.380;2023-04-15T00:41:15;5.57;;;3.50;;
8279;SDS011;8335;42.646;23.380;2023-04-15T00:43:42;4.03;;;3.20;;
8279;SDS011;8335;42.646;23.380;2023-04-15T00:46:08;10.03;;;3.97;;
8279;SDS011;8335;42.646;23.380;2023-04-15T00:48:38;9.73;;;5.50;;
8279;SDS011;8335;42.646;23.380;2023-04-15T00:51:07;5.57;;;4.17;;
8279;SDS011;8335;42.646;23.380;2023-04-15T00:53:34;6.13;;;3.83;;
8279;SDS011;8335;42.646;23.380;2023-04-15T00:56:01;8.63;;;4.53;;
8279;SDS011;8335;42.646;23.380;2023-04-15T00:58:28;7.40;;;4.00;;
8279;SDS011;8335;42.646;23.380;2023-04-15T01:00:55;5.80;;;3.97;;
8279;SDS011;8335;42.646;23.380;2023-04-15T01:03:23;7.10;;;4.67;;
8279;SDS011;8335;42.646;23.380;2023-04-15T01:05:50;7.77;;;4.67;;
8279;SDS011;8335;42.646;23.380;2023-04-15T01:08:23;6.63;;;4.00;;
8279;SDS011;8335;42.646;23.380;2023-04-15T01:10:53;8.13;;;3.90;;
8279;SDS011;8335;42.646;23.380;2023-04-15T01:13:21;6.77;;;3.63;;
8279;SDS011;8335;42.646;23.380;2023-04-15T01:15:49;7.03;;;3.83;;
8279;SDS011;8335;42.646;23.380;2023-04-15T01:18:16;4.37;;;3.03;;
8279;SDS011;8335;42.646;23.380;2023-04-15T01:20:43;4.67;;;3.20;;
8279;SDS011;8335;42.646;23.380;2023-04-15T01:23:11;3.80;;;2.87;;
8279;SDS011;8335;42.646;23.380;2023-04-15T01:25:39;5.07;;;3.20;;
8279;SDS011;8335;42.646;23.380;2023-04-15T01:28:07;4.67;;;3.00;;
8279;SDS011;8335;42.646;23.380;2023-04-15T01:30:35;7.07;;;3.27;;
8279;SDS011;8335;42.646;23.380;2023-04-15T01:33:02;4.87;;;3.40;;
8279;SDS011;8335;42.646;23.380;2023-04-15T01:35:29;7.50;;;3.20;;
8279;SDS011;8335;42.646;23.380;2023-04-15T01:37:56;7.27;;;3.60;;
8279;SDS011;8335;42.646;23.380;2023-04-15T01:40:28;5.57;;;3.67;;
8279;SDS011;8335;42.646;23.380;2023-04-15T01:42:56;5.17;;;3.47;;
8279;SDS011;8335;42.646;23.380;2023-04-15T01:45:23;4.50;;;3.43;;
8279;SDS011;8335;42.646;23.380;2023-04-15T01:47:50;6.07;;;3.47;;
8279;SDS011;8335;42.646;23.380;2023-04-15T01:50:17;6.20;;;3.50;;
8279;SDS011;8335;42.646;23.380;2023-04-15T01:52:44;4.60;;;3.50;;
8279;SDS011;8335;42.646;23.380;2023-04-15T01:55:11;4.87;;;3.30;;
8279;SDS011;8335;42.646;23.380;2023-04-15T01:57:39;4.27;;;3.07;;
8279;SDS011;8335;42.646;23.380;2023-04-15T02:00:08;3.63;;;2.80;;
8279;SDS011;8335;42.646;23.380;2023-04-15T02:02:35;5.80;;;3.53;;
8279;SDS011;8335;42.646;23.380;2023-04-15T02:05:03;4.90;;;3.60;;
8279;SDS011;8335;42.646;23.380;2023-04-15T02:07:29;3.80;;;2.90;;
8279;SDS011;8335;42.646;23.380;2023-04-15T02:09:57;3.93;;;2.90;;
8279;SDS011;8335;42.646;23.380;2023-04-15T02:12:24;5.10;;;2.90;;
8279;SDS011;8335;42.646;23.380;2023-04-15T02:14:51;4.83;;;2.77;;
8279;SDS011;8335;42.646;23.380;2023-04-15T02:17:19;5.53;;;3.40;;
8279;SDS011;8335;42.646;23.380;2023-04-15T02:19:46;5.60;;;3.17;;
8279;SDS011;8335;42.646;23.380;2023-04-15T02:22:13;3.27;;;2.87;;
8279;SDS011;8335;42.646;23.380;2023-04-15T02:24:42;4.80;;;3.27;;
8279;SDS011;8335;42.646;23.380;2023-04-15T02:27:14;4.37;;;3.30;;
8279;SDS011;8335;42.646;23.380;2023-04-15T02:29:42;4.90;;;3.10;;
8279;SDS011;8335;42.646;23.380;2023-04-15T02:32:08;5.50;;;3.50;;
8279;SDS011;8335;42.646;23.380;2023-04-15T02:34:37;9.43;;;4.03;;
8279;SDS011;8335;42.646;23.380;2023-04-15T02:37:05;3.97;;;3.00;;
8279;SDS011;8335;42.646;23.380;2023-04-15T02:39:32;5.73;;;3.37;;
8279;SDS011;8335;42.646;23.380;2023-04-15T02:41:59;5.77;;;3.60;;
8279;SDS011;8335;42.646;23.380;2023-04-15T02:44:26;7.07;;;3.23;;
8279;SDS011;8335;42.646;23.380;2023-04-15T02:46:53;5.20;;;3.40;;
8279;SDS011;8335;42.646;23.380;2023-04-15T02:49:20;4.97;;;3.40;;
8279;SDS011;8335;42.646;23.380;2023-04-15T02:51:48;7.07;;;3.73;;
8279;SDS011;8335;42.646;23.380;2023-04-15T02:54:15;8.53;;;3.90;;
8279;SDS011;8335;42.646;23.380;2023-04-15T02:56:42;7.77;;;3.97;;
8279;SDS011;8335;42.646;23.380;2023-04-15T02:59:09;4.53;;;3.23;;
8279;SDS011;8335;42.646;23.380;2023-04-15T03:01:36;5.20;;;3.83;;
8279;SDS011;8335;42.646;23.380;2023-04-15T03:04:03;5.47;;;3.13;;
8279;SDS011;8335;42.646;23.380;2023-04-15T03:06:31;6.53;;;3.30;;
8279;SDS011;8335;42.646;23.380;2023-04-15T03:09:00;5.27;;;3.50;;
8279;SDS011;8335;42.646;23.380;2023-04-15T03:11:27;3.90;;;3.50;;
8279;SDS011;8335;42.646;23.380;2023-04-15T03:13:55;7.90;;;3.30;;
8279;SDS011;8335;42.646;23.380;2023-04-15T03:16:22;5.30;;;3.57;;
8279;SDS011;8335;42.646;23.380;2023-04-15T03:18:49;4.17;;;3.50;;
8279;SDS011;8335;42.646;23.380;2023-04-15T03:21:15;4.57;;;3.23;;
8279;SDS011;8335;42.646;23.380;2023-04-15T03:23:43;4.83;;;3.10;;
8279;SDS011;8335;42.646;23.380;2023-04-15T03:26:13;6.77;;;3.70;;
8279;SDS011;8335;42.646;23.380;2023-04-15T03:28:49;5.63;;;3.30;;
8279;SDS011;8335;42.646;23.380;2023-04-15T03:31:16;8.17;;;4.00;;
8279;SDS011;8335;42.646;23.380;2023-04-15T03:33:43;5.20;;;3.60;;
8279;SDS011;8335;42.646;23.380;2023-04-15T03:36:09;5.83;;;3.77;;
8279;SDS011;8335;42.646;23.380;2023-04-15T03:38:36;6.10;;;3.30;;
8279;SDS011;8335;42.646;23.380;2023-04-15T03:41:03;5.83;;;3.67;;
8279;SDS011;8335;42.646;23.380;2023-04-15T03:43:31;7.60;;;3.90;;
8279;SDS011;8335;42.646;23.380;2023-04-15T03:45:58;6.90;;;3.87;;
8279;SDS011;8335;42.646;23.380;2023-04-15T03:48:25;4.47;;;3.60;;
8279;SDS011;8335;42.646;23.380;2023-04-15T03:50:52;8.77;;;4.43;;
8279;SDS011;8335;42.646;23.380;2023-04-15T03:53:19;5.70;;;3.30;;
8279;SDS011;8335;42.646;23.380;2023-04-15T03:55:46;8.23;;;4.10;;
8279;SDS011;8335;42.646;23.380;2023-04-15T03:58:13;9.77;;;4.17;;
8279;SDS011;8335;42.646;23.380;2023-04-15T04:00:41;5.30;;;4.13;;
8279;SDS011;8335;42.646;23.380;2023-04-15T04:03:08;6.30;;;3.93;;
8279;SDS011;8335;42.646;23.380;2023-04-15T04:05:35;6.10;;;3.60;;
8279;SDS011;8335;42.646;23.380;2023-04-15T04:08:03;5.13;;;3.80;;
8279;SDS011;8335;42.646;23.380;2023-04-15T04:10:30;8.63;;;4.23;;
8279;SDS011;8335;42.646;23.380;2023-04-15T04:12:57;6.90;;;4.10;;
8279;SDS011;8335;42.646;23.380;2023-04-15T04:15:23;5.23;;;4.03;;
8279;SDS011;8335;42.646;23.380;2023-04-15T04:17:52;5.80;;;4.10;;
8279;SDS011;8335;42.646;23.380;2023-04-15T04:20:19;8.17;;;4.57;;
8279;SDS011;8335;42.646;23.380;2023-04-15T04:22:46;6.17;;;4.10;;
8279;SDS011;8335;42.646;23.380;2023-04-15T04:25:12;6.07;;;4.30;;
8279;SDS011;8335;42.646;23.380;2023-04-15T04:27:39;6.23;;;4.30;;
8279;SDS011;8335;42.646;23.380;2023-04-15T04:30:06;9.93;;;5.57;;
8279;SDS011;8335;42.646;23.380;2023-04-15T04:32:33;10.03;;;4.77;;
8279;SDS011;8335;42.646;23.380;2023-04-15T04:35:02;6.40;;;4.93;;
8279;SDS011;8335;42.646;23.380;2023-04-15T04:37:29;8.47;;;5.50;;
8279;SDS011;8335;42.646;23.380;2023-04-15T04:39:56;10.37;;;5.40;;
8279;SDS011;8335;42.646;23.380;2023-04-15T04:42:22;8.97;;;5.70;;
8279;SDS011;8335;42.646;23.380;2023-04-15T04:44:49;9.75;;;5.43;;
8279;SDS011;8335;42.646;23.380;2023-04-15T04:47:16;10.77;;;5.85;;
8279;SDS011;8335;42.646;23.380;2023-04-15T04:49:43;7.53;;;6.00;;
8279;SDS011;8335;42.646;23.380;2023-04-15T04:52:11;8.38;;;6.10;;
8279;SDS011;8335;42.646;23.380;2023-04-15T04:54:38;8.23;;;5.75;;
8279;SDS011;8335;42.646;23.380;2023-04-15T04:57:05;10.07;;;5.75;;
8279;SDS011;8335;42.646;23.380;2023-04-15T04:59:32;9.13;;;5.47;;
8279;SDS011;8335;42.646;23.380;2023-04-15T05:01:59;8.60;;;5.82;;
8279;SDS011;8335;42.646;23.380;2023-04-15T05:04:26;9.60;;;5.70;;
8279;SDS011;8335;42.646;23.380;2023-04-15T05:06:53;8.45;;;5.85;;
8279;SDS011;8335;42.646;23.380;2023-04-15T05:09:21;7.47;;;6.00;;
8279;SDS011;8335;42.646;23.380;2023-04-15T05:11:47;10.63;;;6.07;;
8279;SDS011;8335;42.646;23.380;2023-04-15T05:14:14;8.10;;;6.28;;
8279;SDS011;8335;42.646;23.380;2023-04-15T05:16:41;9.20;;;6.95;;
8279;SDS011;8335;42.646;23.380;2023-04-15T05:19:08;6.45;;;5.60;;
8279;SDS011;8335;42.646;23.380;2023-04-15T05:21:34;7.07;;;5.80;;
8279;SDS011;8335;42.646;23.380;2023-04-15T05:24:02;11.43;;;5.70;;
8279;SDS011;8335;42.646;23.380;2023-04-15T05:26:31;7.05;;;5.68;;
8279;SDS011;8335;42.646;23.380;2023-04-15T05:28:57;7.70;;;5.60;;
8279;SDS011;8335;42.646;23.380;2023-04-15T05:31:24;8.02;;;5.75;;
8279;SDS011;8335;42.646;23.380;2023-04-15T05:33:51;10.90;;;5.40;;
8279;SDS011;8335;42.646;23.380;2023-04-15T05:36:18;7.90;;;5.80;;
8279;SDS011;8335;42.646;23.380;2023-04-15T05:38:45;8.88;;;5.03;;
8279;SDS011;8335;42.646;23.380;2023-04-15T05:41:11;6.55;;;5.00;;
8279;SDS011;8335;42.646;23.380;2023-04-15T05:43:41;7.95;;;5.85;;
8279;SDS011;8335;42.646;23.380;2023-04-15T05:46:07;6.93;;;5.40;;
8279;SDS011;8335;42.646;23.380;2023-04-15T05:48:34;7.47;;;5.28;;
8279;SDS011;8335;42.646;23.380;2023-04-15T05:51:01;6.43;;;4.90;;
8279;SDS011;8335;42.646;23.380;2023-04-15T05:53:28;5.47;;;4.40;;
8279;SDS011;8335;42.646;23.380;2023-04-15T05:55:54;8.75;;;4.65;;
8279;SDS011;8335;42.646;23.380;2023-04-15T05:58:22;9.73;;;5.28;;
8279;SDS011;8335;42.646;23.380;2023-04-15T06:00:50;9.30;;;4.65;;
8279;SDS011;8335;42.646;23.380;2023-04-15T06:03:16;5.70;;;2.92;;
8279;SDS011;8335;42.646;23.380;2023-04-15T06:05:43;6.32;;;3.25;;
8279;SDS011;8335;42.646;23.380;2023-04-15T06:08:10;7.25;;;4.05;;
8279;SDS011;8335;42.646;23.380;2023-04-15T06:10:37;7.28;;;3.72;;
8279;SDS011;8335;42.646;23.380;2023-04-15T06:13:04;4.82;;;3.88;;
8279;SDS011;8335;42.646;23.380;2023-04-15T06:15:31;7.78;;;3.70;;
8279;SDS011;8335;42.646;23.380;2023-04-15T06:17:59;7.20;;;4.53;;
8279;SDS011;8335;42.646;23.380;2023-04-15T06:20:26;6.53;;;3.78;;
8279;SDS011;8335;42.646;23.380;2023-04-15T06:22:52;14.48;;;4.38;;
8279;SDS011;8335;42.646;23.380;2023-04-15T06:25:19;6.20;;;3.70;;
8279;SDS011;8335;42.646;23.380;2023-04-15T06:27:46;8.75;;;4.30;;
8279;SDS011;8335;42.646;23.380;2023-04-15T06:30:13;8.38;;;4.20;;
8279;SDS011;8335;42.646;23.380;2023-04-15T06:32:40;8.45;;;3.90;;
8279;SDS011;8335;42.646;23.380;2023-04-15T06:35:08;5.20;;;3.30;;
8279;SDS011;8335;42.646;23.380;2023-04-15T06:37:35;7.65;;;3.38;;
8279;SDS011;8335;42.646;23.380;2023-04-15T06:40:02;4.70;;;3.53;;
8279;SDS011;8335;42.646;23.380;2023-04-15T06:42:30;7.68;;;3.15;;
8279;SDS011;8335;42.646;23.380;2023-04-15T06:44:56;4.43;;;3.17;;
8279;SDS011;8335;42.646;23.380;2023-04-15T06:47:23;6.30;;;3.40;;
8279;SDS011;8335;42.646;23.380;2023-04-15T06:49:50;7.55;;;3.17;;
8279;SDS011;8335;42.646;23.380;2023-04-15T06:52:18;5.93;;;3.38;;
8279;SDS011;8335;42.646;23.380;2023-04-15T06:54:45;5.05;;;3.10;;
8279;SDS011;8335;42.646;23.380;2023-04-15T06:57:12;5.88;;;3.60;;
8279;SDS011;8335;42.646;23.380;2023-04-15T06:59:38;7.03;;;3.40;;
8279;SDS011;8335;42.646;23.380;2023-04-15T07:02:07;6.57;;;3.05;;
8279;SDS011;8335;42.646;23.380;2023-04-15T07:04:38;5.50;;;3.05;;
8279;SDS011;8335;42.646;23.380;2023-04-15T07:07:05;4.72;;;3.22;;
8279;SDS011;8335;42.646;23.380;2023-04-15T07:09:33;5.70;;;3.13;;
8279;SDS011;8335;42.646;23.380;2023-04-15T07:12:01;9.30;;;3.65;;
8279;SDS011;8335;42.646;23.380;2023-04-15T07:14:28;6.28;;;2.60;;
8279;SDS011;8335;42.646;23.380;2023-04-15T07:16:55;8.20;;;3.00;;
8279;SDS011;8335;42.646;23.380;2023-04-15T07:19:21;5.32;;;2.00;;
8279;SDS011;8335;42.646;23.380;2023-04-15T07:21:48;7.38;;;2.92;;
8279;SDS011;8335;42.646;23.380;2023-04-15T07:24:15;4.35;;;2.58;;
8279;SDS011;8335;42.646;23.380;2023-04-15T07:26:43;4.65;;;2.70;;
8279;SDS011;8335;42.646;23.380;2023-04-15T07:29:10;6.05;;;3.10;;
8279;SDS011;8335;42.646;23.380;2023-04-15T07:31:37;11.25;;;3.90;;
8279;SDS011;8335;42.646;23.380;2023-04-15T07:34:05;10.15;;;3.40;;
8279;SDS011;8335;42.646;23.380;2023-04-15T07:36:32;7.40;;;3.10;;
8279;SDS011;8335;42.646;23.380;2023-04-15T07:38:59;5.90;;;2.83;;
8279;SDS011;8335;42.646;23.380;2023-04-15T07:41:27;9.77;;;3.20;;
8279;SDS011;8335;42.646;23.380;2023-04-15T07:43:56;7.00;;;3.03;;
8279;SDS011;8335;42.646;23.380;2023-04-15T07:46:23;7.65;;;3.38;;
8279;SDS011;8335;42.646;23.380;2023-04-15T07:48:51;6.72;;;3.20;;
8279;SDS011;8335;42.646;23.380;2023-04-15T07:51:18;4.65;;;2.78;;
8279;SDS011;8335;42.646;23.380;2023-04-15T07:53:45;14.13;;;3.63;;
8279;SDS011;8335;42.646;23.380;2023-04-15T07:56:12;5.18;;;3.35;;
8279;SDS011;8335;42.646;23.380;2023-04-15T07:58:39;7.72;;;3.55;;
8279;SDS011;8335;42.646;23.380;2023-04-15T08:01:07;5.18;;;3.05;;
8279;SDS011;8335;42.646;23.380;2023-04-15T08:03:34;5.55;;;3.20;;
8279;SDS011;8335;42.646;23.380;2023-04-15T08:06:01;6.07;;;3.00;;
8279;SDS011;8335;42.646;23.380;2023-04-15T08:08:28;6.10;;;3.17;;
8279;SDS011;8335;42.646;23.380;2023-04-15T08:10:55;3.97;;;2.80;;
8279;SDS011;8335;42.646;23.380;2023-04-15T08:13:21;4.80;;;2.97;;
8279;SDS011;8335;42.646;23.380;2023-04-15T08:18:42;5.20;;;3.25;;
8279;SDS011;8335;42.646;23.380;2023-04-15T08:21:09;3.63;;;2.72;;
8279;SDS011;8335;42.646;23.380;2023-04-15T08:23:36;6.38;;;2.97;;
8279;SDS011;8335;42.646;23.380;2023-04-15T08:26:03;4.85;;;2.05;;
8279;SDS011;8335;42.646;23.380;2023-04-15T08:28:30;5.65;;;2.47;;
8279;SDS011;8335;42.646;23.380;2023-04-15T08:30:57;6.25;;;2.50;;
8279;SDS011;8335;42.646;23.380;2023-04-15T08:33:25;4.28;;;2.72;;
8279;SDS011;8335;42.646;23.380;2023-04-15T08:35:52;5.45;;;2.65;;
8279;SDS011;8335;42.646;23.380;2023-04-15T08:38:19;6.63;;;2.30;;
8279;SDS011;8335;42.646;23.380;2023-04-15T08:40:46;4.93;;;2.60;;
8279;SDS011;8335;42.646;23.380;2023-04-15T08:43:14;8.52;;;2.60;;
8279;SDS011;8335;42.646;23.380;2023-04-15T08:45:46;4.82;;;2.50;;
8279;SDS011;8335;42.646;23.380;2023-04-15T08:48:15;7.78;;;2.38;;
8279;SDS011;8335;42.646;23.380;2023-04-15T08:50:44;3.65;;;2.63;;
8279;SDS011;8335;42.646;23.380;2023-04-15T08:53:11;5.20;;;2.60;;
8279;SDS011;8335;42.646;23.380;2023-04-15T08:55:41;4.93;;;2.45;;
8279;SDS011;8335;42.646;23.380;2023-04-15T08:58:09;7.55;;;3.05;;
8279;SDS011;8335;42.646;23.380;2023-04-15T09:00:37;7.22;;;3.33;;
8279;SDS011;8335;42.646;23.380;2023-04-15T09:03:05;4.72;;;2.80;;
8279;SDS011;8335;42.646;23.380;2023-04-15T09:05:33;3.15;;;2.20;;
8279;SDS011;8335;42.646;23.380;2023-04-15T09:08:02;2.55;;;1.92;;
8279;SDS011;8335;42.646;23.380;2023-04-15T09:10:30;4.22;;;2.22;;
8279;SDS011;8335;42.646;23.380;2023-04-15T09:12:58;3.35;;;1.90;;
8279;SDS011;8335;42.646;23.380;2023-04-15T09:15:24;2.28;;;1.48;;
8279;SDS011;8335;42.646;23.380;2023-04-15T09:17:53;4.40;;;1.70;;
8279;SDS011;8335;42.646;23.380;2023-04-15T09:20:20;3.75;;;2.00;;
8279;SDS011;8335;42.646;23.380;2023-04-15T09:22:48;3.65;;;1.60;;
8279;SDS011;8335;42.646;23.380;2023-04-15T09:25:29;2.60;;;1.63;;
8279;SDS011;8335;42.646;23.380;2023-04-15T09:27:57;3.63;;;1.70;;
8279;SDS011;8335;42.646;23.380;2023-04-15T09:30:27;2.17;;;1.30;;
8279;SDS011;8335;42.646;23.380;2023-04-15T09:32:55;5.25;;;1.65;;
8279;SDS011;8335;42.646;23.380;2023-04-15T09:35:23;2.25;;;1.70;;
8279;SDS011;8335;42.646;23.380;2023-04-15T09:37:51;2.33;;;1.50;;
8279;SDS011;8335;42.646;23.380;2023-04-15T09:43:02;3.30;;;1.50;;
8279;SDS011;8335;42.646;23.380;2023-04-15T09:45:30;1.92;;;1.40;;
8279;SDS011;8335;42.646;23.380;2023-04-15T09:47:58;3.92;;;1.50;;
8279;SDS011;8335;42.646;23.380;2023-04-15T09:50:40;2.58;;;1.50;;
8279;SDS011;8335;42.646;23.380;2023-04-15T09:53:08;2.25;;;1.50;;
8279;SDS011;8335;42.646;23.380;2023-04-15T09:55:36;3.70;;;2.70;;
8279;SDS011;8335;42.646;23.380;2023-04-15T09:58:07;2.75;;;2.20;;
8279;SDS011;8335;42.646;23.380;2023-04-15T10:00:34;4.47;;;1.88;;
8279;SDS011;8335;42.646;23.380;2023-04-15T10:03:02;2.03;;;1.55;;
8279;SDS011;8335;42.646;23.380;2023-04-15T10:05:31;7.95;;;1.83;;
8279;SDS011;8335;42.646;23.380;2023-04-15T10:07:59;3.33;;;1.70;;
8279;SDS011;8335;42.646;23.380;2023-04-15T10:10:28;1.80;;;1.40;;
8279;SDS011;8335;42.646;23.380;2023-04-15T10:12:58;2.35;;;1.67;;
8279;SDS011;8335;42.646;23.380;2023-04-15T10:15:26;4.68;;;2.40;;
8279;SDS011;8335;42.646;23.380;2023-04-15T10:17:55;2.28;;;1.70;;
8279;SDS011;8335;42.646;23.380;2023-04-15T10:20:23;5.65;;;1.67;;
8279;SDS011;8335;42.646;23.380;2023-04-15T10:22:50;3.28;;;1.40;;
8279;SDS011;8335;42.646;23.380;2023-04-15T10:25:18;2.72;;;1.33;;
8279;SDS011;8335;42.646;23.380;2023-04-15T10:27:46;2.90;;;1.65;;
8279;SDS011;8335;42.646;23.380;2023-04-15T10:30:15;2.55;;;1.42;;
8279;SDS011;8335;42.646;23.380;2023-04-15T10:32:42;3.50;;;1.77;;
8279;SDS011;8335;42.646;23.380;2023-04-15T10:35:11;3.17;;;1.77;;
8279;SDS011;8335;42.646;23.380;2023-04-15T10:37:39;2.20;;;1.25;;
8279;SDS011;8335;42.646;23.380;2023-04-15T10:40:22;1.85;;;1.45;;
8279;SDS011;8335;42.646;23.380;2023-04-15T10:42:51;3.72;;;1.67;;
8279;SDS011;8335;42.646;23.380;2023-04-15T10:45:20;2.58;;;1.50;;
8279;SDS011;8335;42.646;23.380;2023-04-15T10:47:50;2.08;;;1.50;;
8279;SDS011;8335;42.646;23.380;2023-04-15T10:50:18;2.63;;;1.70;;
8279;SDS011;8335;42.646;23.380;2023-04-15T10:52:45;3.17;;;1.50;;
8279;SDS011;8335;42.646;23.380;2023-04-15T10:55:17;3.60;;;1.73;;
8279;SDS011;8335;42.646;23.380;2023-04-15T10:57:46;3.50;;;1.50;;
8279;SDS011;8335;42.646;23.380;2023-04-15T11:00:17;3.83;;;1.40;;
8279;SDS011;8335;42.646;23.380;2023-04-15T11:02:47;5.25;;;1.70;;
8279;SDS011;8335;42.646;23.380;2023-04-15T11:05:18;2.45;;;1.27;;
8279;SDS011;8335;42.646;23.380;2023-04-15T11:07:47;2.05;;;1.23;;
8279;SDS011;8335;42.646;23.380;2023-04-15T11:13:20;3.92;;;1.92;;
8279;SDS011;8335;42.646;23.380;2023-04-15T11:15:54;4.50;;;1.50;;
8279;SDS011;8335;42.646;23.380;2023-04-15T11:18:26;3.65;;;1.70;;
8279;SDS011;8335;42.646;23.380;2023-04-15T11:20:55;3.90;;;1.38;;
8279;SDS011;8335;42.646;23.380;2023-04-15T11:23:27;2.75;;;1.35;;
8279;SDS011;8335;42.646;23.380;2023-04-15T11:25:55;11.48;;;2.35;;
8279;SDS011;8335;42.646;23.380;2023-04-15T11:28:24;6.15;;;1.70;;
8279;SDS011;8335;42.646;23.380;2023-04-15T11:30:53;2.22;;;1.33;;
8279;SDS011;8335;42.646;23.380;2023-04-15T11:33:20;2.63;;;1.48;;
8279;SDS011;8335;42.646;23.380;2023-04-15T11:35:49;2.30;;;1.40;;
8279;SDS011;8335;42.646;23.380;2023-04-15T11:38:18;2.63;;;1.40;;
8279;SDS011;8335;42.646;23.380;2023-04-15T11:40:44;3.63;;;1.65;;
8279;SDS011;8335;42.646;23.380;2023-04-15T11:43:12;3.20;;;1.48;;
8279;SDS011;8335;42.646;23.380;2023-04-15T11:45:47;4.53;;;1.52;;
8279;SDS011;8335;42.646;23.380;2023-04-15T11:48:17;3.97;;;1.75;;
8279;SDS011;8335;42.646;23.380;2023-04-15T11:50:44;3.33;;;1.60;;
8279;SDS011;8335;42.646;23.380;2023-04-15T11:53:12;2.90;;;1.30;;
8279;SDS011;8335;42.646;23.380;2023-04-15T11:55:40;3.40;;;1.48;;
8279;SDS011;8335;42.646;23.380;2023-04-15T11:58:09;2.58;;;1.60;;
8279;SDS011;8335;42.646;23.380;2023-04-15T12:00:37;2.38;;;1.27;;
8279;SDS011;8335;42.646;23.380;2023-04-15T12:03:11;1.42;;;1.30;;
8279;SDS011;8335;42.646;23.380;2023-04-15T12:09:00;4.75;;;2.20;;
8279;SDS011;8335;42.646;23.380;2023-04-15T12:11:33;4.18;;;2.67;;
8279;SDS011;8335;42.646;23.380;2023-04-15T12:14:20;3.25;;;1.60;;
8279;SDS011;8335;42.646;23.380;2023-04-15T12:16:50;6.20;;;1.75;;
8279;SDS011;8335;42.646;23.380;2023-04-15T12:19:21;3.72;;;1.50;;
8279;SDS011;8335;42.646;23.380;2023-04-15T12:21:50;3.72;;;1.38;;
8279;SDS011;8335;42.646;23.380;2023-04-15T12:24:20;7.82;;;3.13;;
8279;SDS011;8335;42.646;23.380;2023-04-15T12:26:48;2.33;;;1.40;;
8279;SDS011;8335;42.646;23.380;2023-04-15T12:29:16;5.97;;;2.30;;
8279;SDS011;8335;42.646;23.380;2023-04-15T12:31:46;3.85;;;1.70;;
8279;SDS011;8335;42.646;23.380;2023-04-15T12:34:14;5.38;;;2.42;;
8279;SDS011;8335;42.646;23.380;2023-04-15T12:36:41;7.65;;;2.40;;
8279;SDS011;8335;42.646;23.380;2023-04-15T12:39:08;2.88;;;1.20;;
8279;SDS011;8335;42.646;23.380;2023-04-15T12:41:37;2.42;;;1.13;;
8279;SDS011;8335;42.646;23.380;2023-04-15T12:44:03;1.83;;;1.13;;
8279;SDS011;8335;42.646;23.380;2023-04-15T12:46:30;3.78;;;1.80;;
8279;SDS011;8335;42.646;23.380;2023-04-15T12:48:57;2.97;;;1.73;;
8279;SDS011;8335;42.646;23.380;2023-04-15T12:51:24;2.30;;;1.08;;
8279;SDS011;8335;42.646;23.380;2023-04-15T12:53:51;4.10;;;1.13;;
8279;SDS011;8335;42.646;23.380;2023-04-15T12:56:18;2.22;;;0.90;;
8279;SDS011;8335;42.646;23.380;2023-04-15T12:58:46;1.75;;;1.20;;
8279;SDS011;8335;42.646;23.380;2023-04-15T13:01:13;1.58;;;0.80;;
8279;SDS011;8335;42.646;23.380;2023-04-15T13:03:39;2.90;;;1.10;;
8279;SDS011;8335;42.646;23.380;2023-04-15T13:06:06;1.90;;;1.10;;
8279;SDS011;8335;42.646;23.380;2023-04-15T13:08:33;3.72;;;1.20;;
8279;SDS011;8335;42.646;23.380;2023-04-15T13:10:59;2.50;;;0.88;;
8279;SDS011;8335;42.646;23.380;2023-04-15T13:13:26;2.88;;;0.98;;
8279;SDS011;8335;42.646;23.380;2023-04-15T13:15:54;3.22;;;1.48;;
8279;SDS011;8335;42.646;23.380;2023-04-15T13:18:21;2.08;;;1.27;;
8279;SDS011;8335;42.646;23.380;2023-04-15T13:20:48;2.10;;;1.27;;
8279;SDS011;8335;42.646;23.380;2023-04-15T13:23:14;1.35;;;0.90;;
8279;SDS011;8335;42.646;23.380;2023-04-15T13:25:41;4.78;;;1.08;;
8279;SDS011;8335;42.646;23.380;2023-04-15T13:28:09;1.35;;;1.00;;
8279;SDS011;8335;42.646;23.380;2023-04-15T13:30:36;2.15;;;1.00;;
8279;SDS011;8335;42.646;23.380;2023-04-15T13:33:04;2.78;;;1.20;;
8279;SDS011;8335;42.646;23.380;2023-04-15T13:35:31;2.17;;;1.00;;
8279;SDS011;8335;42.646;23.380;2023-04-15T13:37:58;1.27;;;0.98;;
8279;SDS011;8335;42.646;23.380;2023-04-15T13:40:24;1.98;;;1.00;;
8279;SDS011;8335;42.646;23.380;2023-04-15T13:42:51;3.53;;;0.95;;
8279;SDS011;8335;42.646;23.380;2023-04-15T13:45:18;3.53;;;0.95;;
8279;SDS011;8335;42.646;23.380;2023-04-15T13:47:45;2.50;;;1.00;;
8279;SDS011;8335;42.646;23.380;2023-04-15T13:50:13;1.85;;;1.20;;
8279;SDS011;8335;42.646;23.380;2023-04-15T13:52:40;1.65;;;1.00;;
8279;SDS011;8335;42.646;23.380;2023-04-15T13:55:07;4.90;;;1.02;;
8279;SDS011;8335;42.646;23.380;2023-04-15T13:57:34;1.35;;;0.90;;
8279;SDS011;8335;42.646;23.380;2023-04-15T14:00:01;2.75;;;0.98;;
8279;SDS011;8335;42.646;23.380;2023-04-15T14:02:29;1.80;;;0.70;;
8279;SDS011;8335;42.646;23.380;2023-04-15T14:04:55;1.35;;;0.77;;
8279;SDS011;8335;42.646;23.380;2023-04-15T14:07:24;1.35;;;0.90;;
8279;SDS011;8335;42.646;23.380;2023-04-15T14:09:50;3.33;;;1.00;;
8279;SDS011;8335;42.646;23.380;2023-04-15T14:12:17;1.58;;;1.08;;
8279;SDS011;8335;42.646;23.380;2023-04-15T14:14:44;1.10;;;1.00;;
8279;SDS011;8335;42.646;23.380;2023-04-15T14:17:11;2.03;;;0.98;;
8279;SDS011;8335;42.646;23.380;2023-04-15T14:19:37;1.38;;;0.90;;
8279;SDS011;8335;42.646;23.380;2023-04-15T14:22:04;3.22;;;1.10;;
8279;SDS011;8335;42.646;23.380;2023-04-15T14:24:32;1.85;;;0.93;;
8279;SDS011;8335;42.646;23.380;2023-04-15T14:26:59;1.70;;;0.82;;
8279;SDS011;8335;42.646;23.380;2023-04-15T14:29:26;1.40;;;0.90;;
8279;SDS011;8335;42.646;23.380;2023-04-15T14:31:53;1.00;;;0.90;;
8279;SDS011;8335;42.646;23.380;2023-04-15T14:34:21;1.92;;;1.13;;
8279;SDS011;8335;42.646;23.380;2023-04-15T14:36:49;1.23;;;1.00;;
8279;SDS011;8335;42.646;23.380;2023-04-15T14:39:16;2.38;;;0.93;;
8279;SDS011;8335;42.646;23.380;2023-04-15T14:41:44;2.47;;;1.20;;
8279;SDS011;8335;42.646;23.380;2023-04-15T14:44:11;3.65;;;1.00;;
8279;SDS011;8335;42.646;23.380;2023-04-15T14:46:38;3.00;;;1.40;;
8279;SDS011;8335;42.646;23.380;2023-04-15T14:49:06;2.47;;;1.23;;
8279;SDS011;8335;42.646;23.380;2023-04-15T14:51:33;1.27;;;1.10;;
8279;SDS011;8335;42.646;23.380;2023-04-15T14:53:59;3.45;;;1.10;;
8279;SDS011;8335;42.646;23.380;2023-04-15T14:56:26;2.28;;;1.20;;
8279;SDS011;8335;42.646;23.380;2023-04-15T14:58:54;1.80;;;1.08;;
8279;SDS011;8335;42.646;23.380;2023-04-15T15:01:21;1.20;;;0.90;;
8279;SDS011;8335;42.646;23.380;2023-04-15T15:03:48;2.90;;;1.10;;
8279;SDS011;8335;42.646;23.380;2023-04-15T15:06:15;2.33;;;0.88;;
8279;SDS011;8335;42.646;23.380;2023-04-15T15:08:41;1.45;;;1.25;;
8279;SDS011;8335;42.646;23.380;2023-04-15T15:11:08;2.60;;;1.00;;
8279;SDS011;8335;42.646;23.380;2023-04-15T15:13:35;2.58;;;1.00;;
8279;SDS011;8335;42.646;23.380;2023-04-15T15:16:03;1.27;;;1.00;;